Terminal Aerodrome Forecast
Issued by NWS Mt. Holly, NJ

Home | Current Version | Previous Version | Text Only | Print | Product List | Glossary On
Versions: 1 2 3 4 5 6 7 8 9 10 11 12 13 14 15 16 17 18 19 20 21 22 23 24 25 26 27 28 29
000
FTUS41 KPHI 292128 AAA
TAFPHL
TAF AMD
KPHL 292128Z 2921/3024 36006KT P6SM SCT070
     FM300000 VRB03KT P6SM SCT045
     FM301300 21006KT P6SM BKN100
     FM301600 16006KT P6SM VCSH BKN050
     FM302100 15005KT 5SM -SHRA OVC020=

USA.gov is the U.S. government's official web portal to all federal, state and local government web resources and services.